createdAt,value
2022-12-20T00:02:00.494Z,95810.06
2022-12-20T00:04:28.385Z,95801.59
2022-12-20T00:06:57.530Z,95811.44
2022-12-20T00:09:26.349Z,95811.84
2022-12-20T00:11:54.365Z,95821.19
2022-12-20T00:14:22.271Z,95826.09
2022-12-20T00:16:50.576Z,95828.50
2022-12-20T00:19:18.450Z,95836.75
2022-12-20T00:21:46.346Z,95835.56
2022-12-20T00:24:19.273Z,95825.44
2022-12-20T00:26:50.251Z,95824.63
2022-12-20T00:29:18.184Z,95819.88
2022-12-20T00:31:46.347Z,95822.28
2022-12-20T00:34:14.273Z,95818.00
2022-12-20T00:36:42.087Z,95819.72
2022-12-20T00:39:11.558Z,95808.63
2022-12-20T00:41:40.848Z,95799.94
2022-12-20T00:44:08.803Z,95805.41
2022-12-20T00:46:36.706Z,95797.94
2022-12-20T00:49:04.655Z,95798.63
2022-12-20T00:51:33.650Z,95801.41
2022-12-20T00:54:01.654Z,95801.31
2022-12-20T00:56:29.438Z,95814.66
2022-12-20T00:59:00.119Z,95812.00
2022-12-20T01:01:30.349Z,95815.59
2022-12-20T01:03:58.753Z,95812.78
2022-12-20T01:06:27.059Z,95807.59
2022-12-20T01:08:55.865Z,95813.84
2022-12-20T01:11:25.603Z,95807.19
2022-12-20T01:13:56.101Z,95817.31
2022-12-20T01:16:27.368Z,95818.78
2022-12-20T01:18:55.646Z,95810.25
2022-12-20T01:21:25.207Z,95817.59
2022-12-20T01:23:53.411Z,95816.13
2022-12-20T01:26:23.487Z,95814.91
2022-12-20T01:28:54.999Z,95808.66
2022-12-20T01:31:23.687Z,95803.19
2022-12-20T01:33:53.523Z,95802.00
2022-12-20T01:36:25.204Z,95795.44
2022-12-20T01:38:57.832Z,95797.19
2022-12-20T01:41:26.236Z,95804.91
2022-12-20T01:43:56.375Z,95800.09
2022-12-20T01:46:26.176Z,95802.88
2022-12-20T01:49:00.364Z,95796.59
2022-12-20T01:51:30.483Z,95789.13
2022-12-20T01:54:05.088Z,95789.56
2022-12-20T01:56:33.115Z,95788.38
2022-12-20T01:59:02.317Z,95791.53
2022-12-20T02:01:30.432Z,95794.38
2022-12-20T02:03:59.659Z,95790.22
2022-12-20T02:06:28.690Z,95787.16
2022-12-20T02:08:59.700Z,95785.56
2022-12-20T02:11:47.905Z,95782.50
2022-12-20T02:14:25.601Z,95785.03
2022-12-20T02:16:59.766Z,95783.13
2022-12-20T02:19:57.523Z,95772.75
2022-12-20T02:22:37.315Z,95783.56
2022-12-20T02:25:17.983Z,95779.44
2022-12-20T02:27:54.762Z,95783.44
2022-12-20T02:30:29.845Z,95773.56
2022-12-20T02:33:01.987Z,95786.34
2022-12-20T02:35:33.784Z,95789.56
2022-12-20T02:38:25.202Z,95781.28
2022-12-20T02:40:56.126Z,95777.69
2022-12-20T02:43:43.443Z,95782.09
2022-12-20T02:46:14.606Z,95792.47
2022-12-20T02:48:43.479Z,95788.34
2022-12-20T02:51:13.053Z,95779.13
2022-12-20T02:53:43.013Z,95770.75
2022-12-20T02:56:17.649Z,95764.50
2022-12-20T02:58:53.849Z,95769.13
2022-12-20T03:01:29.099Z,95769.41
2022-12-20T03:03:58.917Z,95766.59
2022-12-20T03:06:26.993Z,95758.22
2022-12-20T03:08:54.922Z,95756.78
2022-12-20T03:11:26.607Z,95760.22
2022-12-20T03:13:54.797Z,95761.59
2022-12-20T03:16:24.040Z,95773.44
2022-12-20T03:18:51.994Z,95777.44
2022-12-20T03:21:19.768Z,95774.78
2022-12-20T03:23:47.649Z,95783.84
2022-12-20T03:26:15.499Z,95782.53
2022-12-20T03:28:48.320Z,95774.28
2022-12-20T03:31:20.264Z,95761.47
2022-12-20T03:33:53.873Z,95759.34
2022-12-20T03:36:23.872Z,95737.47
2022-12-20T03:38:56.421Z,95750.25
2022-12-20T03:41:26.502Z,95742.94
2022-12-20T03:43:54.839Z,95731.31
2022-12-20T03:46:23.674Z,95723.34
2022-12-20T03:48:53.038Z,95718.66
2022-12-20T03:51:21.113Z,95717.88
2022-12-20T03:53:49.127Z,95725.47
2022-12-20T03:56:19.323Z,95721.63
2022-12-20T03:58:47.326Z,95720.28
2022-12-20T04:01:22.748Z,95731.34
2022-12-20T04:03:52.864Z,95730.03
2022-12-20T04:06:21.161Z,95724.84
2022-12-20T04:08:49.556Z,95738.41
2022-12-20T04:11:24.885Z,95736.56
2022-12-20T04:13:57.774Z,95745.75
2022-12-20T04:16:26.935Z,95742.69
2022-12-20T04:18:57.458Z,95752.00
2022-12-20T04:21:29.399Z,95738.28
2022-12-20T04:23:59.874Z,95739.88
2022-12-20T04:26:37.547Z,95739.75
2022-12-20T04:29:05.543Z,95740.41
2022-12-20T04:31:34.083Z,95731.59
2022-12-20T04:34:03.333Z,95735.88
2022-12-20T04:36:33.052Z,95731.59
2022-12-20T04:39:03.875Z,95732.16
2022-12-20T04:41:39.990Z,95727.34
2022-12-20T04:44:11.884Z,95725.19
2022-12-20T04:46:40.026Z,95732.78
2022-12-20T04:49:13.709Z,95728.16
2022-12-20T04:51:44.441Z,95718.28
2022-12-20T04:54:12.862Z,95708.16
2022-12-20T04:56:46.570Z,95708.66
2022-12-20T04:59:20.091Z,95701.22
2022-12-20T05:01:50.854Z,95697.63
2022-12-20T05:04:37.604Z,95685.75
2022-12-20T05:07:06.287Z,95686.44
2022-12-20T05:09:36.302Z,95681.25
2022-12-20T05:12:04.294Z,95688.16
2022-12-20T05:14:32.601Z,95685.34
2022-12-20T05:17:00.533Z,95686.81
2022-12-20T05:19:29.379Z,95685.50
2022-12-20T05:22:16.160Z,95671.09
2022-12-20T05:25:13.019Z,95674.03
2022-12-20T05:27:42.060Z,95685.25
2022-12-20T05:30:10.897Z,95678.72
2022-12-20T05:32:38.824Z,95671.50
2022-12-20T05:35:06.885Z,95668.03
2022-12-20T05:37:38.893Z,95668.59
2022-12-20T05:40:16.122Z,95669.38
2022-12-20T05:42:44.638Z,95664.44
2022-12-20T05:45:12.894Z,95664.44
2022-12-20T05:47:50.001Z,95656.44
2022-12-20T05:50:19.220Z,95649.91
2022-12-20T05:53:11.583Z,95636.19
2022-12-20T05:55:46.980Z,95639.66
2022-12-20T05:58:14.822Z,95654.19
2022-12-20T06:00:51.853Z,95649.50
2022-12-20T06:03:20.419Z,95653.63
2022-12-20T06:05:49.176Z,95659.78
2022-12-20T06:08:24.914Z,95665.09
2022-12-20T06:10:53.941Z,95664.78
2022-12-20T06:13:23.219Z,95663.69
2022-12-20T06:15:54.086Z,95660.72
2022-12-20T06:18:22.917Z,95675.13
2022-12-20T06:20:55.462Z,95671.53
2022-12-20T06:23:26.533Z,95660.84
2022-12-20T06:26:09.276Z,95678.94
2022-12-20T06:28:52.583Z,95662.66
2022-12-20T06:31:28.097Z,95652.78
2022-12-20T06:33:56.639Z,95657.06
2022-12-20T06:36:28.265Z,95655.84
2022-12-20T06:38:58.666Z,95675.88
2022-12-20T06:41:26.817Z,95667.47
2022-12-20T06:43:54.711Z,95661.19
2022-12-20T06:46:22.517Z,95657.34
2022-12-20T06:48:54.107Z,95651.38
2022-12-20T06:51:22.724Z,95658.66
2022-12-20T06:53:50.939Z,95657.69
2022-12-20T06:56:20.812Z,95665.16
2022-12-20T06:58:49.133Z,95661.69
2022-12-20T07:01:17.643Z,95665.03
2022-12-20T07:03:45.447Z,95658.72
2022-12-20T07:06:13.310Z,95647.41
2022-12-20T07:08:41.084Z,95649.81
2022-12-20T07:11:09.357Z,95646.38
2022-12-20T07:13:38.511Z,95643.03
2022-12-20T07:16:07.080Z,95650.31
2022-12-20T07:18:35.717Z,95641.63
2022-12-20T07:21:04.958Z,95654.16
2022-12-20T07:23:33.117Z,95650.56
2022-12-20T07:26:03.952Z,95651.50
2022-12-20T07:28:32.230Z,95655.22
2022-12-20T07:31:03.641Z,95657.50
2022-12-20T07:33:31.648Z,95652.56
2022-12-20T07:36:03.410Z,95660.44
2022-12-20T07:38:31.356Z,95671.50
2022-12-20T07:40:59.151Z,95660.66
2022-12-20T07:43:26.956Z,95664.16
2022-12-20T07:45:56.838Z,95667.72
2022-12-20T07:48:26.129Z,95674.06
2022-12-20T07:50:56.868Z,95668.41
2022-12-20T07:53:26.010Z,95687.25
2022-12-20T07:55:54.980Z,95680.06
2022-12-20T07:58:23.686Z,95680.88
2022-12-20T08:00:52.005Z,95686.34
2022-12-20T08:03:22.736Z,95675.28
2022-12-20T08:05:56.210Z,95689.00
2022-12-20T08:08:24.278Z,95687.34
2022-12-20T08:10:52.449Z,95690.09
2022-12-20T08:13:20.314Z,95685.25
2022-12-20T08:15:48.319Z,95665.47
2022-12-20T08:18:16.159Z,95663.94
2022-12-20T08:20:43.967Z,95659.97
2022-12-20T08:23:13.136Z,95672.06
2022-12-20T08:25:42.166Z,95683.41
2022-12-20T08:28:10.861Z,95676.25
2022-12-20T08:30:39.010Z,95676.25
2022-12-20T08:33:07.200Z,95669.59
2022-12-20T08:35:35.516Z,95671.06
2022-12-20T08:38:03.319Z,95665.75
2022-12-20T08:40:32.537Z,95674.47
2022-12-20T08:43:03.736Z,95675.28
2022-12-20T08:45:36.086Z,95685.13
2022-12-20T08:48:03.915Z,95680.69
2022-12-20T08:50:31.986Z,95684.91
2022-12-20T08:52:59.766Z,95681.72
2022-12-20T08:55:29.482Z,95680.34
2022-12-20T08:57:58.850Z,95682.56
2022-12-20T09:00:27.135Z,95682.50
2022-12-20T09:02:55.983Z,95680.81
2022-12-20T09:05:23.939Z,95678.91
2022-12-20T09:07:51.757Z,95664.81
2022-12-20T09:10:19.685Z,95655.34
2022-12-20T09:12:47.484Z,95655.00
2022-12-20T09:15:16.860Z,95659.25
2022-12-20T09:17:44.682Z,95649.72
2022-12-20T09:20:12.900Z,95648.56
2022-12-20T09:22:40.867Z,95646.53
2022-12-20T09:25:09.670Z,95650.38
2022-12-20T09:27:38.106Z,95643.41
2022-12-20T09:30:06.770Z,95647.38
2022-12-20T09:32:35.996Z,95637.91
2022-12-20T09:35:03.790Z,95641.41
2022-12-20T09:37:32.363Z,95630.28
2022-12-20T09:40:00.417Z,95626.66
2022-12-20T09:42:31.000Z,95631.09
2022-12-20T09:45:03.233Z,95619.28
2022-12-20T09:47:32.181Z,95615.72
2022-12-20T09:50:01.452Z,95617.00
2022-12-20T09:52:43.954Z,95615.72
2022-12-20T09:55:25.225Z,95621.31
2022-12-20T09:58:13.624Z,95610.84
2022-12-20T10:00:48.636Z,95610.78
2022-12-20T10:03:24.681Z,95604.25
2022-12-20T10:05:56.265Z,95598.34
2022-12-20T10:08:42.756Z,95596.13
2022-12-20T10:11:25.675Z,95601.50
2022-12-20T10:14:07.747Z,95599.75
2022-12-20T10:16:43.654Z,95597.66
2022-12-20T10:19:25.051Z,95594.28
2022-12-20T10:22:06.091Z,95600.81
2022-12-20T10:24:36.114Z,95598.38
2022-12-20T10:27:13.993Z,95607.28
2022-12-20T10:29:42.510Z,95591.84
2022-12-20T10:32:15.546Z,95602.31
2022-12-20T10:34:53.110Z,95600.13
2022-12-20T10:37:23.897Z,95581.31
2022-12-20T10:39:54.643Z,95571.00
2022-12-20T10:42:31.833Z,95578.16
2022-12-20T10:44:59.901Z,95563.63
2022-12-20T10:47:38.948Z,95557.81
2022-12-20T10:50:16.443Z,95557.00
2022-12-20T10:52:46.933Z,95546.75
2022-12-20T10:55:42.886Z,95539.69
2022-12-20T10:58:17.126Z,95538.19
2022-12-20T11:00:46.367Z,95534.63
2022-12-20T11:03:18.435Z,95533.41
2022-12-20T11:06:01.586Z,95524.00
2022-12-20T11:08:41.173Z,95522.97
2022-12-20T11:11:16.426Z,95515.59
2022-12-20T11:13:45.044Z,95510.31
2022-12-20T11:16:36.137Z,95513.66
2022-12-20T11:19:31.143Z,95496.59
2022-12-20T11:22:05.958Z,95502.78
2022-12-20T11:24:47.255Z,95505.69
2022-12-20T11:27:26.886Z,95512.53
2022-12-20T11:30:13.665Z,95500.81
2022-12-20T11:33:13.586Z,95494.88
2022-12-20T11:35:53.491Z,95500.16
2022-12-20T11:38:37.973Z,95487.97
2022-12-20T11:41:19.568Z,95476.59
2022-12-20T11:47:05.377Z,95466.28
2022-12-20T11:49:59.602Z,95457.63
2022-12-20T11:52:36.654Z,95450.28
2022-12-20T11:55:17.946Z,95445.44
2022-12-20T11:58:17.496Z,95445.97
2022-12-20T12:00:52.242Z,95434.22
2022-12-20T12:03:26.570Z,95432.19
2022-12-20T12:06:00.918Z,95432.44
2022-12-20T12:08:37.033Z,95434.09
2022-12-20T12:11:25.518Z,95427.88
2022-12-20T12:14:03.075Z,95441.75
2022-12-20T12:16:36.369Z,95425.91
2022-12-20T12:19:04.838Z,95426.09
2022-12-20T12:21:38.116Z,95427.25
2022-12-20T12:24:12.755Z,95420.25
2022-12-20T12:26:42.715Z,95414.78
2022-12-20T12:29:14.873Z,95412.38
2022-12-20T12:31:51.498Z,95421.94
2022-12-20T12:34:32.537Z,95420.19
2022-12-20T12:37:30.428Z,95423.34
2022-12-20T12:40:17.217Z,95423.63
2022-12-20T12:43:13.954Z,95413.81
2022-12-20T12:45:48.003Z,95409.84
2022-12-20T12:48:21.641Z,95409.81
2022-12-20T12:50:52.084Z,95407.13
2022-12-20T12:53:23.792Z,95398.78
2022-12-20T12:56:02.401Z,95401.19
2022-12-20T12:58:46.434Z,95396.53
2022-12-20T13:01:51.659Z,95391.16
2022-12-20T13:04:30.695Z,95399.56
2022-12-20T13:07:01.729Z,95400.59
2022-12-20T13:09:41.955Z,95397.25
2022-12-20T13:12:49.768Z,95404.06
2022-12-20T13:15:53.303Z,95404.78
2022-12-20T13:18:29.716Z,95400.38
2022-12-20T13:21:32.916Z,95404.00
2022-12-20T13:24:36.385Z,95409.09
2022-12-20T13:27:05.585Z,95403.09
2022-12-20T13:29:36.020Z,95399.72
2022-12-20T13:32:04.496Z,95408.25
2022-12-20T13:34:55.135Z,95423.41
2022-12-20T13:37:54.587Z,95414.41
2022-12-20T13:40:32.407Z,95398.38
2022-12-20T13:43:06.901Z,95390.31
2022-12-20T13:45:35.876Z,95395.69
2022-12-20T13:48:11.380Z,95394.31
2022-12-20T13:50:42.990Z,95387.25
2022-12-20T13:53:19.123Z,95384.25
2022-12-20T13:55:50.768Z,95376.44
2022-12-20T13:58:21.028Z,95375.47
2022-12-20T14:00:50.507Z,95369.03
2022-12-20T14:03:25.254Z,95380.44
2022-12-20T14:05:59.535Z,95379.13
2022-12-20T14:08:30.987Z,95368.44
2022-12-20T14:11:10.192Z,95369.56
2022-12-20T14:13:38.494Z,95370.25
2022-12-20T14:16:11.684Z,95370.03
2022-12-20T14:18:39.617Z,95368.31
2022-12-20T14:21:10.488Z,95354.75
2022-12-20T14:23:41.723Z,95345.28
2022-12-20T14:26:14.232Z,95346.66
2022-12-20T14:28:45.130Z,95327.78
2022-12-20T14:31:25.221Z,95337.94
2022-12-20T14:34:01.950Z,95323.13
2022-12-20T14:36:31.768Z,95326.47
2022-12-20T14:38:59.603Z,95326.88
2022-12-20T14:41:35.863Z,95322.81
2022-12-20T14:44:15.146Z,95331.88
2022-12-20T14:46:49.321Z,95328.56
2022-12-20T14:49:25.840Z,95325.78
2022-12-20T14:52:08.813Z,95335.47
2022-12-20T14:57:38.920Z,95314.59
2022-12-20T15:00:16.519Z,95317.44
2022-12-20T15:02:51.444Z,95313.16
2022-12-20T15:05:48.551Z,95326.13
2022-12-20T15:08:20.622Z,95327.25
2022-12-20T15:10:52.672Z,95325.41
2022-12-20T15:13:22.681Z,95330.19
2022-12-20T15:15:50.592Z,95325.75
2022-12-20T15:18:20.749Z,95309.69
2022-12-20T15:20:55.635Z,95310.31
2022-12-20T15:23:27.592Z,95294.41
2022-12-20T15:25:55.671Z,95287.56
2022-12-20T15:28:25.500Z,95282.66
2022-12-20T15:30:54.687Z,95293.19
2022-12-20T15:33:26.069Z,95302.41
2022-12-20T15:35:54.753Z,95303.38
2022-12-20T15:38:47.568Z,95301.00
2022-12-20T15:41:23.335Z,95303.22
2022-12-20T15:43:53.698Z,95303.69
2022-12-20T15:46:21.723Z,95311.50
2022-12-20T15:48:49.893Z,95303.06
2022-12-20T15:51:22.891Z,95295.59
2022-12-20T15:53:54.461Z,95295.28
2022-12-20T15:56:25.500Z,95296.88
2022-12-20T15:58:53.744Z,95294.16
2022-12-20T16:01:25.099Z,95302.59
2022-12-20T16:03:53.207Z,95307.34
2022-12-20T16:06:21.338Z,95319.44
2022-12-20T16:08:49.093Z,95312.72
2022-12-20T16:11:23.076Z,95306.66
2022-12-20T16:13:51.208Z,95299.53
2022-12-20T16:16:20.783Z,95296.19
2022-12-20T16:18:48.793Z,95297.00
2022-12-20T16:21:18.768Z,95298.75
2022-12-20T16:23:46.710Z,95292.06
2022-12-20T16:26:16.143Z,95296.66
2022-12-20T16:28:45.297Z,95294.13
2022-12-20T16:31:22.627Z,95286.03
2022-12-20T16:33:50.675Z,95286.97
2022-12-20T16:36:18.565Z,95296.31
2022-12-20T16:38:46.476Z,95292.50
2022-12-20T16:41:16.070Z,95305.84
2022-12-20T16:43:46.260Z,95320.50
2022-12-20T16:46:16.673Z,95318.06
2022-12-20T16:48:45.453Z,95296.41
2022-12-20T16:51:24.356Z,95297.34
2022-12-20T16:54:18.047Z,95296.34
2022-12-20T16:56:40.809Z,95303.81
2022-12-20T16:59:20.083Z,95293.97
2022-12-20T17:01:50.842Z,95299.63
2022-12-20T17:04:20.552Z,95302.38
2022-12-20T17:06:48.661Z,95299.84
2022-12-20T17:12:04.278Z,95301.28
2022-12-20T17:14:33.502Z,95310.50
2022-12-20T17:17:01.366Z,95313.19
2022-12-20T17:19:29.184Z,95320.38
2022-12-20T17:24:42.561Z,95308.78
2022-12-20T17:27:11.550Z,95309.09
2022-12-20T17:29:40.829Z,95296.81
2022-12-20T17:32:20.608Z,95300.81
2022-12-20T17:34:48.892Z,95301.56
2022-12-20T17:37:17.543Z,95309.66
2022-12-20T17:39:45.439Z,95300.56
2022-12-20T17:42:14.400Z,95304.59
2022-12-20T17:44:44.141Z,95293.00
2022-12-20T17:47:12.706Z,95294.41
2022-12-20T17:49:40.508Z,95294.44
2022-12-20T17:52:14.244Z,95298.53
2022-12-20T17:54:42.114Z,95300.81
2022-12-20T17:57:14.294Z,95291.72
2022-12-20T17:59:44.029Z,95279.78
2022-12-20T18:02:22.904Z,95271.03
2022-12-20T18:04:51.553Z,95289.94
2022-12-20T18:07:19.513Z,95276.91
2022-12-20T18:09:48.565Z,95276.41
2022-12-20T18:12:16.532Z,95273.88
2022-12-20T18:14:45.927Z,95279.25
2022-12-20T18:17:14.052Z,95291.50
2022-12-20T18:19:43.796Z,95292.97
2022-12-20T18:22:11.641Z,95303.31
2022-12-20T18:24:39.379Z,95295.38
2022-12-20T18:27:07.187Z,95297.47
2022-12-20T18:29:34.927Z,95292.31
2022-12-20T18:32:04.452Z,95287.09
2022-12-20T18:34:32.453Z,95276.91
2022-12-20T18:37:01.892Z,95271.00
2022-12-20T18:39:29.704Z,95267.44
2022-12-20T18:41:57.677Z,95276.78
2022-12-20T18:44:25.455Z,95268.53
2022-12-20T18:46:53.677Z,95262.38
2022-12-20T18:49:22.950Z,95249.69
2022-12-20T18:51:50.757Z,95253.19
2022-12-20T18:54:18.571Z,95250.00
2022-12-20T18:56:46.493Z,95250.59
2022-12-20T18:59:14.364Z,95251.38
2022-12-20T19:01:43.589Z,95261.25
2022-12-20T19:04:12.304Z,95261.69
2022-12-20T19:06:41.483Z,95263.94
2022-12-20T19:09:16.864Z,95264.13
2022-12-20T19:11:45.058Z,95270.66
2022-12-20T19:14:13.447Z,95271.44
2022-12-20T19:16:41.344Z,95253.81
2022-12-20T19:19:10.058Z,95246.97
2022-12-20T19:21:40.969Z,95247.22
2022-12-20T19:24:12.203Z,95248.34
2022-12-20T19:26:40.224Z,95238.00
2022-12-20T19:29:08.662Z,95236.06
2022-12-20T19:31:38.025Z,95234.97
2022-12-20T19:34:07.896Z,95232.28
2022-12-20T19:36:38.688Z,95233.88
2022-12-20T19:39:08.602Z,95234.41
2022-12-20T19:41:40.122Z,95219.69
2022-12-20T19:44:08.845Z,95214.63
2022-12-20T19:46:36.954Z,95217.59
2022-12-20T19:49:04.897Z,95211.94
2022-12-20T19:51:33.019Z,95208.44
2022-12-20T19:54:01.243Z,95204.00
2022-12-20T19:56:31.479Z,95197.19
2022-12-20T19:59:01.460Z,95201.19
2022-12-20T20:01:29.892Z,95182.44
2022-12-20T20:04:00.157Z,95187.38
2022-12-20T20:06:29.316Z,95177.03
2022-12-20T20:08:59.639Z,95178.31
2022-12-20T20:11:29.086Z,95188.31
2022-12-20T20:13:57.526Z,95180.88
2022-12-20T20:16:26.759Z,95177.19
2022-12-20T20:18:54.813Z,95181.81
2022-12-20T20:21:23.939Z,95181.38
2022-12-20T20:23:53.525Z,95195.03
2022-12-20T20:26:24.123Z,95200.41
2022-12-20T20:28:52.493Z,95198.22
2022-12-20T20:31:21.689Z,95196.13
2022-12-20T20:33:51.949Z,95210.41
2022-12-20T20:36:23.029Z,95205.03
2022-12-20T20:38:52.300Z,95191.84
2022-12-20T20:41:21.003Z,95200.72
2022-12-20T20:43:49.482Z,95175.63
2022-12-20T20:46:18.534Z,95191.50
2022-12-20T20:48:46.756Z,95170.38
2022-12-20T20:51:15.984Z,95168.94
2022-12-20T20:53:43.790Z,95171.75
2022-12-20T20:56:12.031Z,95163.50
2022-12-20T20:58:42.313Z,95159.03
2022-12-20T21:01:11.537Z,95164.13
2022-12-20T21:03:40.274Z,95176.31
2022-12-20T21:08:58.841Z,95157.22
2022-12-20T21:11:26.832Z,95165.66
2022-12-20T21:13:55.240Z,95172.78
2022-12-20T21:16:24.394Z,95166.81
2022-12-20T21:18:53.017Z,95154.22
2022-12-20T21:21:21.456Z,95159.31
2022-12-20T21:23:49.476Z,95158.09
2022-12-20T21:26:20.192Z,95148.88
2022-12-20T21:28:48.492Z,95154.25
2022-12-20T21:31:18.617Z,95164.50
2022-12-20T21:33:46.868Z,95156.13
2022-12-20T21:36:17.135Z,95154.22
2022-12-20T21:38:48.334Z,95162.53
2022-12-20T21:41:16.123Z,95157.94
2022-12-20T21:43:45.365Z,95162.38
2022-12-20T21:46:13.208Z,95158.53
2022-12-20T21:48:48.289Z,95163.09
2022-12-20T21:51:18.160Z,95163.69
2022-12-20T21:53:47.596Z,95168.00
2022-12-20T21:56:16.500Z,95166.41
2022-12-20T21:58:46.679Z,95169.94
2022-12-20T22:01:18.195Z,95190.97
2022-12-20T22:03:46.102Z,95197.38
2022-12-20T22:06:13.919Z,95193.41
2022-12-20T22:08:41.684Z,95208.06
2022-12-20T22:11:13.144Z,95222.31
2022-12-20T22:13:42.303Z,95235.31
2022-12-20T22:16:13.671Z,95219.25
2022-12-20T22:18:43.010Z,95214.59
2022-12-20T22:21:12.844Z,95218.56
2022-12-20T22:23:41.775Z,95203.34
2022-12-20T22:26:11.645Z,95194.94
2022-12-20T22:28:40.445Z,95187.97
2022-12-20T22:31:09.587Z,95200.47
2022-12-20T22:33:39.656Z,95209.38
2022-12-20T22:36:09.349Z,95197.78
2022-12-20T22:38:37.205Z,95211.53
2022-12-20T22:41:09.623Z,95213.03
2022-12-20T22:43:37.880Z,95217.97
2022-12-20T22:46:06.274Z,95194.06
2022-12-20T22:48:34.511Z,95191.00
2022-12-20T22:51:06.375Z,95184.34
2022-12-20T22:53:35.098Z,95191.00
2022-12-20T22:56:03.530Z,95193.97
2022-12-20T22:58:32.480Z,95179.78
2022-12-20T23:01:01.917Z,95186.34
2022-12-20T23:03:31.987Z,95185.44
2022-12-20T23:06:01.905Z,95184.66
2022-12-20T23:08:34.070Z,95185.03
2022-12-20T23:11:20.194Z,95180.66
2022-12-20T23:14:05.504Z,95189.09
2022-12-20T23:16:33.362Z,95194.63
2022-12-20T23:19:02.707Z,95193.34
2022-12-20T23:21:48.218Z,95196.91
2022-12-20T23:24:17.488Z,95189.44
2022-12-20T23:26:45.579Z,95197.47
2022-12-20T23:29:14.361Z,95178.97
2022-12-20T23:31:42.302Z,95178.69
2022-12-20T23:34:10.394Z,95177.44
2022-12-20T23:36:38.569Z,95167.41
2022-12-20T23:39:06.590Z,95158.53
2022-12-20T23:41:36.909Z,95169.56
2022-12-20T23:44:05.611Z,95176.81
2022-12-20T23:46:33.788Z,95176.53
2022-12-20T23:49:01.582Z,95183.63
2022-12-20T23:51:29.431Z,95186.78
2022-12-20T23:53:57.199Z,95188.94
2022-12-20T23:56:25.229Z,95181.81
2022-12-20T23:58:55.705Z,95179.84
